1N3 weather

Albert Airport
Philipsburg, Pennsylvania, United States

Public forecast

Using degrees Fahrenheit for public forecast. Weather courtesy of forecast.io.

Closest aviation weather report (METAR) to Albert Airport

Closest report is Clearfield Lawrence Airport, 9.0 nm (16.7 km) WNW. Retrieved 2020/08/05 14:54 UTC (43 minutes ago):

KFIG 051454Z AUTO 30009G15KT 10SM FEW033 SCT041 SCT055 23/12 A3012 RMK AO2 SLP190 T02280117 53005

Closest aviation forecast (TAF) to Albert Airport

Closest forecast is University Park Airport, 19.3 nm (35.8 km) ESE. Retrieved 2020/08/05 12:28 UTC (3 hours ago):

TAF KUNV 051126Z 0512/0612 25006KT P6SM SCT025 FM051400 27008KT P6SM SCT040 FM052300 29005KT P6SM FEW250